FHBGH LFLJ-LFLJ
Flight info
| Callsign | FHBGH |
|---|---|
| Flight time | 0h 8m |
| Altitude | 10000 |
| Route | LOCAL |
| Aircraft | EC13/L-V/N |
Departure
| Time | 2026-04-22 16:31 |
|---|---|
| Airport | Courchevel Altiport (LFLJ) |
Arrival
| Time | 2026-04-22 16:40 |
|---|---|
| Airport | Courchevel Altiport (LFLJ) |
| Time | Latitude | Longitude | Altitude | Speed | Heading |
|---|---|---|---|---|---|
| 2026-04-22 16:24 | 45.39590 | 6.63550 | 6634 ft | 0 kts | 239° |
| 2026-04-22 16:30 | 45.39585 | 6.63546 | 6666 ft | 1 kts | 161° |
| 2026-04-22 16:30 | 45.39586 | 6.63552 | 6667 ft | 4 kts | 7° |
| 2026-04-22 16:31 | 45.39739 | 6.63511 | 6666 ft | 52 kts | 36° |
| 2026-04-22 16:31 | 45.40108 | 6.64016 | 6870 ft | 79 kts | 27° |
| 2026-04-22 16:31 | 45.40271 | 6.64437 | 7020 ft | 88 kts | 176° |
| 2026-04-22 16:31 | 45.39785 | 6.64113 | 7427 ft | 76 kts | 218° |
| 2026-04-22 16:32 | 45.39264 | 6.63803 | 7768 ft | 82 kts | 219° |
| 2026-04-22 16:32 | 45.38765 | 6.63373 | 8139 ft | 88 kts | 220° |
| 2026-04-22 16:32 | 45.38401 | 6.63172 | 8503 ft | 80 kts | 206° |
| 2026-04-22 16:32 | 45.37672 | 6.62688 | 8902 ft | 91 kts | 213° |
| 2026-04-22 16:33 | 45.37110 | 6.62291 | 9244 ft | 90 kts | 216° |
| 2026-04-22 16:33 | 45.36573 | 6.61767 | 9509 ft | 99 kts | 227° |
| 2026-04-22 16:33 | 45.36225 | 6.61319 | 9669 ft | 107 kts | 227° |
| 2026-04-22 16:33 | 45.35700 | 6.60581 | 9960 ft | 105 kts | 234° |
| 2026-04-22 16:34 | 45.35140 | 6.59858 | 10186 ft | 115 kts | 219° |
| 2026-04-22 16:34 | 45.34355 | 6.59365 | 10240 ft | 129 kts | 201° |
| 2026-04-22 16:34 | 45.33492 | 6.59033 | 10409 ft | 128 kts | 198° |
| 2026-04-22 16:34 | 45.32595 | 6.58815 | 10515 ft | 132 kts | 194° |
| 2026-04-22 16:35 | 45.31663 | 6.58481 | 10257 ft | 150 kts | 194° |
| 2026-04-22 16:35 | 45.30712 | 6.58267 | 9488 ft | 116 kts | 185° |
| 2026-04-22 16:35 | 45.29876 | 6.58098 | 8659 ft | 126 kts | 208° |
| 2026-04-22 16:35 | 45.29299 | 6.58225 | 8833 ft | 78 kts | 112° |
| 2026-04-22 16:36 | 45.29589 | 6.58769 | 8595 ft | 90 kts | 348° |
| 2026-04-22 16:36 | 45.29708 | 6.57927 | 8242 ft | 122 kts | 260° |
| 2026-04-22 16:36 | 45.29686 | 6.56627 | 8045 ft | 141 kts | 275° |
| 2026-04-22 16:36 | 45.29995 | 6.55464 | 7689 ft | 81 kts | 315° |
| 2026-04-22 16:37 | 45.30564 | 6.54821 | 7494 ft | 123 kts | 325° |
| 2026-04-22 16:37 | 45.31363 | 6.54261 | 7392 ft | 134 kts | 333° |
| 2026-04-22 16:37 | 45.32224 | 6.53668 | 7272 ft | 137 kts | 332° |
| 2026-04-22 16:37 | 45.33103 | 6.53133 | 7169 ft | 139 kts | 335° |
| 2026-04-22 16:38 | 45.33901 | 6.52743 | 7019 ft | 72 kts | 1° |
| 2026-04-22 16:38 | 45.34602 | 6.52486 | 6654 ft | 126 kts | 334° |
| 2026-04-22 16:38 | 45.35361 | 6.51989 | 6472 ft | 119 kts | 337° |
| 2026-04-22 16:38 | 45.36149 | 6.51497 | 6282 ft | 135 kts | 327° |
| 2026-04-22 16:39 | 45.37005 | 6.50764 | 5925 ft | 147 kts | 327° |
| 2026-04-22 16:39 | 45.37787 | 6.50278 | 5809 ft | 84 kts | 346° |
| 2026-04-22 16:39 | 45.38558 | 6.49836 | 5140 ft | 146 kts | 334° |
| 2026-04-22 16:39 | 45.39047 | 6.49638 | 4974 ft | 81 kts | 353° |
| 2026-04-22 16:40 | 45.39172 | 6.49597 | 4934 ft | 57 kts | 348° |
| 2026-04-22 16:40 | 45.39425 | 6.49734 | 4625 ft | 0 kts | 6° |
| 2026-04-22 16:40 | 45.39435 | 6.49674 | 7909 ft | 0 kts | 294° |
| 2026-04-22 16:41 | 45.39360 | 6.49217 | 4749 ft | 35 kts | 51° |
| 2026-04-22 16:41 | 45.39756 | 6.49367 | 3930 ft | 0 kts | 14° |
| 2026-04-22 16:41 | 45.39956 | 6.49475 | 5208 ft | 60 kts | 340° |
| 2026-04-22 16:42 | 45.39957 | 6.49489 | 3945 ft | 0 kts | 176° |
| 2026-04-22 16:42 | 45.39815 | 6.49334 | 3805 ft | 62 kts | 123° |
| 2026-04-22 16:42 | 45.39805 | 6.49380 | 3821 ft | 6 kts | 142° |
| 2026-04-22 16:42 | 45.39808 | 6.49390 | 3826 ft | 7 kts | 227° |
| 2026-04-22 16:43 | 45.39800 | 6.49399 | 3837 ft | 0 kts | 140° |
| 2026-04-22 16:43 | 45.40263 | 6.48854 | 4060 ft | 0 kts | 145° |
| 2026-04-22 16:43 | 45.40166 | 6.49001 | 4446 ft | 51 kts | 236° |
| 2026-04-22 16:43 | 45.40081 | 6.48905 | 3746 ft | 0 kts | 241° |
| 2026-04-22 16:44 | 45.40081 | 6.48910 | 3736 ft | 4 kts | 250° |
| 2026-04-22 16:44 | 45.39887 | 6.49085 | 3645 ft | 1 kts | 184° |
| 2026-04-22 16:44 | 45.39905 | 6.49348 | 4688 ft | 0 kts | 253° |
| 2026-04-22 16:44 | 45.39819 | 6.49150 | 6975 ft | 56 kts | 165° |
| 2026-04-22 16:45 | 45.39831 | 6.48816 | 4476 ft | 60 kts | 336° |
| 2026-04-22 16:45 | 45.40034 | 6.48673 | 4124 ft | 10 kts | 31° |